Time;durP1;ratioP1;P1;durP2;ratioP2;P2;SDS_P1;SDS_P2;PMS_P1;PMS_P2;Temp;Humidity;BMP_temperature;BMP_pressure;BME280_temperature;BME280_humidity;BME280_pressure;Samples;Min_cycle;Max_cycle;Signal;HPM_P1;HPM_P2
2024/01/01 00:00:40;;;;;;;5.35;1.85;;;21.10;43.70;;;;;;8355951;28;20036;-45
2024/01/01 00:04:40;;;;;;;3.25;1.92;;;21.10;44.20;;;;;;8354462;28;20029;-45
2024/01/01 00:08:41;;;;;;;3.72;2.03;;;21.10;43.70;;;;;;8355668;28;20061;-45
2024/01/01 00:12:42;;;;;;;4.20;2.67;;;21.10;43.70;;;;;;8355731;28;20474;-46
2024/01/01 00:16:42;;;;;;;4.10;2.10;;;21.10;43.60;;;;;;8354293;28;20052;-45
2024/01/01 00:20:44;;;;;;;2.55;2.15;;;21.10;43.70;;;;;;8353945;28;20471;-44
2024/01/01 00:24:45;;;;;;;2.85;1.98;;;21.10;43.80;;;;;;8355852;28;20103;-48
2024/01/01 00:28:46;;;;;;;4.18;2.30;;;21.10;43.70;;;;;;8355560;28;20094;-44
2024/01/01 00:32:46;;;;;;;3.97;2.25;;;21.10;43.60;;;;;;8354998;28;20498;-44
2024/01/01 00:36:48;;;;;;;4.93;2.47;;;21.10;43.50;;;;;;8355168;28;20391;-44
2024/01/01 00:40:48;;;;;;;3.05;2.20;;;21.10;43.40;;;;;;8355058;28;20029;-44
2024/01/01 00:44:49;;;;;;;6.70;2.53;;;21.00;43.60;;;;;;8353840;28;20033;-45
2024/01/01 00:48:50;;;;;;;6.63;2.17;;;20.90;44.50;;;;;;8355047;28;20041;-44
2024/01/01 00:52:51;;;;;;;3.05;1.85;;;20.80;45.00;;;;;;8360292;28;20044;-45
2024/01/01 00:56:54;;;;;;;4.63;2.33;;;20.80;44.80;;;;;;8360662;28;20061;-45
2024/01/01 01:00:56;;;;;;;3.10;1.90;;;20.90;44.40;;;;;;8360968;28;20037;-45
2024/01/01 01:04:57;;;;;;;4.47;2.88;;;21.00;44.30;;;;;;8360725;28;20033;-44
2024/01/01 01:08:57;;;;;;;2.80;1.83;;;21.00;44.40;;;;;;8360057;28;20128;-49
2024/01/01 01:12:58;;;;;;;3.95;2.25;;;20.90;44.10;;;;;;8360486;28;20419;-47
2024/01/01 01:16:59;;;;;;;6.45;2.00;;;21.00;44.00;;;;;;8360212;28;20417;-47
2024/01/01 01:20:59;;;;;;;4.30;1.95;;;21.00;43.90;;;;;;8360386;28;20490;-47
2024/01/01 01:25:00;;;;;;;3.20;2.08;;;21.00;43.80;;;;;;8360003;28;20079;-48
2024/01/01 01:29:01;;;;;;;4.55;1.95;;;21.00;43.80;;;;;;8360171;28;20037;-49
2024/01/01 01:33:02;;;;;;;2.90;1.90;;;21.00;43.80;;;;;;8359878;28;20090;-47
2024/01/01 01:37:02;;;;;;;4.45;1.83;;;21.00;43.60;;;;;;8359640;28;20498;-52
2024/01/01 01:41:03;;;;;;;2.10;1.88;;;21.00;43.60;;;;;;8359076;28;20037;-48
2024/01/01 01:45:04;;;;;;;4.18;2.15;;;21.00;43.80;;;;;;8359547;28;20076;-47
2024/01/01 01:49:05;;;;;;;3.47;1.80;;;21.00;43.80;;;;;;8359194;28;20056;-47
2024/01/01 01:53:06;;;;;;;2.50;1.80;;;20.90;43.80;;;;;;8359486;28;20037;-48
2024/01/01 01:57:07;;;;;;;3.03;2.40;;;21.00;43.80;;;;;;8359132;28;20025;-48
2024/01/01 02:01:09;;;;;;;3.90;2.03;;;21.00;44.00;;;;;;8358801;28;20029;-48
2024/01/01 02:05:10;;;;;;;10.75;2.28;;;21.00;44.20;;;;;;8358423;28;20426;-45
2024/01/01 02:09:11;;;;;;;2.72;2.40;;;21.00;43.60;;;;;;8358711;28;20049;-50
2024/01/01 02:13:29;;;;;;;2.40;1.55;;;21.00;43.60;;;;;;8358493;28;20033;-49
2024/01/01 02:17:29;;;;;;;3.17;2.10;;;21.00;43.40;;;;;;8358622;28;20029;-46
2024/01/01 02:21:31;;;;;;;3.45;1.80;;;21.00;43.50;;;;;;8358320;28;20033;-48
2024/01/01 02:25:33;;;;;;;1.90;1.70;;;20.90;43.50;;;;;;8356986;28;20057;-48
2024/01/01 02:29:34;;;;;;;3.95;1.70;;;21.00;43.60;;;;;;8357768;28;20037;-50
2024/01/01 02:33:35;;;;;;;6.47;2.22;;;20.90;43.70;;;;;;8357713;28;20522;-52
2024/01/01 02:37:36;;;;;;;3.17;1.85;;;21.00;43.40;;;;;;8357955;28;20055;-53
2024/01/01 02:41:37;;;;;;;2.15;1.83;;;21.00;43.20;;;;;;8357746;28;20039;-49
2024/01/01 02:45:38;;;;;;;2.63;1.92;;;21.00;43.20;;;;;;8357360;28;20033;-51
2024/01/01 02:49:39;;;;;;;2.08;1.60;;;21.00;43.30;;;;;;8356431;28;20048;-48
2024/01/01 02:53:39;;;;;;;2.30;1.90;;;20.90;44.20;;;;;;8357236;28;20470;-50
2024/01/01 02:57:40;;;;;;;2.80;1.60;;;20.80;44.70;;;;;;8356983;28;20032;-50
2024/01/01 03:01:41;;;;;;;1.75;1.30;;;20.80;44.50;;;;;;8357053;28;20513;-46
2024/01/01 03:05:43;;;;;;;2.67;2.00;;;20.90;44.20;;;;;;8357240;28;20124;-48
2024/01/01 03:09:44;;;;;;;3.03;1.70;;;20.90;44.30;;;;;;8356492;28;20061;-46
2024/01/01 03:13:46;;;;;;;2.92;1.65;;;20.90;44.00;;;;;;8354973;28;20095;-47
2024/01/01 03:17:47;;;;;;;2.92;1.40;;;20.80;44.10;;;;;;8361509;28;20025;-47
2024/01/01 03:21:47;;;;;;;2.15;1.30;;;20.80;44.10;;;;;;8362291;28;20029;-47
2024/01/01 03:25:48;;;;;;;3.28;1.80;;;20.80;44.40;;;;;;8335761;28;20043;-48
2024/01/01 03:29:49;;;;;;;2.88;1.90;;;20.70;44.00;;;;;;8357425;28;20044;-47
2024/01/01 03:33:50;;;;;;;2.90;1.33;;;20.80;44.00;;;;;;8356425;28;20036;-48
2024/01/01 03:37:51;;;;;;;2.60;1.30;;;20.70;43.80;;;;;;8357627;28;20490;-47
2024/01/01 03:41:52;;;;;;;3.28;1.60;;;20.70;43.70;;;;;;8359191;28;20025;-48
2024/01/01 03:45:52;;;;;;;2.35;1.50;;;20.70;43.60;;;;;;8359673;28;20036;-47
2024/01/01 03:49:53;;;;;;;2.40;1.55;;;20.60;43.40;;;;;;8359354;28;20072;-48
2024/01/01 03:53:54;;;;;;;1.42;1.20;;;20.60;43.40;;;;;;8359195;28;20190;-48
2024/01/01 03:57:54;;;;;;;3.13;1.45;;;20.60;43.40;;;;;;8359358;28;20474;-48
2024/01/01 04:01:55;;;;;;;2.85;1.40;;;20.60;43.40;;;;;;8359310;28;20021;-47
2024/01/01 04:05:57;;;;;;;2.92;1.83;;;20.50;43.30;;;;;;8358728;28;20095;-47
2024/01/01 04:09:57;;;;;;;2.28;1.40;;;20.50;43.40;;;;;;8359063;28;20041;-47
2024/01/01 04:13:58;;;;;;;2.20;1.70;;;20.50;43.20;;;;;;8359138;28;20048;-47
2024/01/01 04:17:59;;;;;;;2.00;1.40;;;20.50;43.20;;;;;;8358858;28;20487;-47
2024/01/01 04:21:59;;;;;;;1.25;1.10;;;20.50;43.20;;;;;;8359195;28;20238;-48
2024/01/01 04:26:00;;;;;;;2.13;1.65;;;20.50;43.10;;;;;;8361136;28;20033;-47
2024/01/01 04:30:04;;;;;;;4.18;1.42;;;20.40;43.10;;;;;;8364963;28;20044;-47
2024/01/01 04:34:04;;;;;;;1.85;1.55;;;20.40;43.10;;;;;;8365584;28;20076;-48
2024/01/01 04:38:05;;;;;;;2.90;1.52;;;20.40;43.00;;;;;;8364875;28;20033;-47
2024/01/01 04:42:06;;;;;;;1.52;1.10;;;20.40;43.00;;;;;;8364719;28;20037;-51
2024/01/01 04:46:09;;;;;;;1.98;1.35;;;20.40;42.90;;;;;;8364620;28;20029;-47
2024/01/01 04:50:11;;;;;;;1.67;1.58;;;20.40;42.90;;;;;;8364517;28;20114;-48
2024/01/01 04:54:11;;;;;;;1.48;1.30;;;20.40;42.90;;;;;;8364433;28;20044;-49
2024/01/01 04:58:12;;;;;;;1.15;1.00;;;20.40;42.90;;;;;;8363103;28;20131;-48
2024/01/01 05:02:15;;;;;;;2.35;1.42;;;20.40;42.90;;;;;;8363982;28;20060;-48
2024/01/01 05:06:17;;;;;;;2.47;1.58;;;20.30;42.80;;;;;;8362944;28;20052;-49
2024/01/01 05:10:18;;;;;;;1.30;1.20;;;20.40;42.80;;;;;;8363876;28;20060;-48
2024/01/01 05:14:18;;;;;;;2.53;1.42;;;20.30;42.70;;;;;;8363618;28;20044;-48
2024/01/01 05:18:19;;;;;;;1.90;1.23;;;20.30;42.70;;;;;;8363633;28;20025;-47
2024/01/01 05:22:20;;;;;;;1.48;1.38;;;20.40;42.70;;;;;;8363908;28;20044;-48
2024/01/01 05:26:21;;;;;;;1.30;1.00;;;20.50;42.80;;;;;;8345638;28;20036;-49
2024/01/01 05:30:22;;;;;;;;;;;20.30;43.80;;;;;;8363899;28;20039;-49
2024/01/01 05:34:23;;;;;;;2.73;1.37;;;20.20;44.20;;;;;;8363271;28;20085;-47
2024/01/01 05:38:24;;;;;;;3.05;1.02;;;20.30;43.80;;;;;;8362304;28;20100;-49
2024/01/01 05:42:25;;;;;;;1.63;1.27;;;20.30;43.50;;;;;;8363023;28;20482;-48
2024/01/01 05:46:27;;;;;;;1.27;0.93;;;20.40;43.30;;;;;;8362008;28;20029;-47
2024/01/01 05:50:29;;;;;;;2.03;1.13;;;20.50;43.00;;;;;;8362957;28;20059;-49
2024/01/01 05:54:30;;;;;;;1.75;1.48;;;20.50;42.90;;;;;;8362762;28;20083;-47
2024/01/01 05:58:31;;;;;;;1.20;1.10;;;20.50;42.80;;;;;;8362561;28;20086;-48
2024/01/01 06:02:32;;;;;;;1.05;0.98;;;20.50;42.70;;;;;;8361070;28;20021;-47
2024/01/01 06:06:33;;;;;;;1.25;0.90;;;20.50;42.60;;;;;;8362318;28;20056;-49
2024/01/01 06:10:34;;;;;;;2.50;1.05;;;20.50;42.60;;;;;;8362000;28;20033;-48
2024/01/01 06:14:35;;;;;;;1.00;0.90;;;20.50;42.80;;;;;;8362097;28;20470;-48
2024/01/01 06:18:36;;;;;;;1.30;1.20;;;20.30;43.80;;;;;;8362563;28;20033;-48
2024/01/01 06:22:36;;;;;;;1.38;1.13;;;20.20;44.20;;;;;;8361755;28;20057;-47
2024/01/01 06:26:37;;;;;;;1.02;0.88;;;20.30;43.80;;;;;;8361559;28;20537;-47
2024/01/01 06:30:38;;;;;;;1.20;1.10;;;20.30;43.40;;;;;;8361749;28;20345;-48
2024/01/01 06:34:39;;;;;;;1.58;1.15;;;20.40;43.20;;;;;;8361449;28;20655;-48
2024/01/01 06:38:39;;;;;;;1.40;1.10;;;20.40;43.00;;;;;;8359961;28;20037;-47
2024/01/01 06:42:40;;;;;;;1.20;1.10;;;20.40;42.80;;;;;;8361403;28;20087;-47
2024/01/01 06:46:41;;;;;;;1.00;0.90;;;20.50;42.80;;;;;;8361250;28;20044;-48
2024/01/01 06:50:42;;;;;;;1.27;1.15;;;20.50;42.60;;;;;;8360655;28;20033;-49
2024/01/01 06:54:42;;;;;;;1.52;1.10;;;20.50;42.60;;;;;;8361009;28;20029;-47
2024/01/01 06:58:43;;;;;;;1.42;0.95;;;20.50;42.50;;;;;;8361310;28;20053;-47
2024/01/01 07:02:44;;;;;;;1.10;1.00;;;20.50;42.70;;;;;;8360711;28;20195;-45
2024/01/01 07:06:45;;;;;;;1.27;0.90;;;20.40;43.90;;;;;;8360410;28;20407;-46
2024/01/01 07:10:48;;;;;;;1.95;0.95;;;20.30;44.30;;;;;;8360540;28;20078;-45
2024/01/01 07:14:49;;;;;;;1.58;1.02;;;20.30;43.80;;;;;;8360404;28;20045;-45
2024/01/01 07:18:49;;;;;;;0.85;0.70;;;20.40;43.40;;;;;;8360298;28;20067;-46
2024/01/01 07:22:50;;;;;;;0.80;0.80;;;20.40;43.10;;;;;;8360116;28;20394;-47
2024/01/01 07:26:51;;;;;;;1.00;0.90;;;20.50;42.90;;;;;;8360242;28;20115;-45
2024/01/01 07:30:52;;;;;;;1.00;0.90;;;20.50;42.80;;;;;;8359811;28;20048;-45
2024/01/01 07:34:54;;;;;;;0.80;0.80;;;20.50;42.70;;;;;;8359695;28;20478;-45
2024/01/01 07:38:54;;;;;;;1.70;1.20;;;20.50;42.50;;;;;;8359797;28;20060;-45
2024/01/01 07:42:55;;;;;;;1.40;1.27;;;20.50;42.50;;;;;;8360050;28;20086;-44
2024/01/01 07:46:56;;;;;;;1.13;0.80;;;20.50;42.40;;;;;;8359480;28;20130;-45
2024/01/01 07:50:56;;;;;;;1.40;1.25;;;20.50;42.80;;;;;;8360261;28;20043;-46
2024/01/01 07:54:57;;;;;;;1.35;1.02;;;20.30;43.80;;;;;;8359629;28;20048;-48
2024/01/01 07:58:58;;;;;;;1.15;0.80;;;20.20;44.00;;;;;;8359687;28;20037;-45
2024/01/01 08:02:59;;;;;;;1.02;0.90;;;20.30;43.60;;;;;;8364103;28;20025;-47
2024/01/01 08:06:59;;;;;;;1.45;0.98;;;20.30;43.20;;;;;;8366100;28;20061;-45
2024/01/01 08:11:00;;;;;;;0.90;0.85;;;20.40;43.00;;;;;;8366299;28;20029;-45
2024/01/01 08:15:01;;;;;;;1.77;0.82;;;20.40;42.90;;;;;;8366021;28;20420;-44
2024/01/01 08:19:02;;;;;;;1.10;0.80;;;20.40;42.80;;;;;;8364361;28;20556;-45
2024/01/01 08:23:02;;;;;;;1.25;1.00;;;20.40;42.70;;;;;;8365822;28;20509;-45
2024/01/01 08:27:06;;;;;;;1.15;0.85;;;20.40;42.60;;;;;;8365971;28;20088;-45
2024/01/01 08:31:07;;;;;;;0.80;0.80;;;20.40;42.50;;;;;;8365227;28;20033;-45
2024/01/01 08:35:08;;;;;;;1.15;0.90;;;20.40;42.40;;;;;;8365270;28;20116;-45
2024/01/01 08:39:12;;;;;;;0.90;0.90;;;20.40;43.00;;;;;;8365161;28;20552;-46
2024/01/01 08:43:13;;;;;;;1.45;0.90;;;20.20;43.80;;;;;;8364863;28;20056;-46
2024/01/01 08:47:15;;;;;;;;;;;20.10;44.00;;;;;;8365438;28;20036;-45
2024/01/01 08:51:16;;;;;;;0.80;0.80;;;20.30;43.60;;;;;;8364762;28;20029;-45
2024/01/01 08:55:16;;;;;;;0.65;0.65;;;20.30;43.20;;;;;;8364463;28;20036;-44
2024/01/01 08:59:17;;;;;;;0.85;0.85;;;20.40;43.00;;;;;;8364355;28;20026;-45
2024/01/01 09:03:18;;;;;;;1.00;0.90;;;20.40;42.70;;;;;;8364354;28;20029;-45
2024/01/01 09:07:20;;;;;;;0.80;0.73;;;20.40;42.60;;;;;;8364450;28;20045;-46
2024/01/01 09:11:21;;;;;;;2.05;0.88;;;20.40;42.50;;;;;;8364230;28;20367;-45
2024/01/01 09:15:22;;;;;;;1.30;0.80;;;20.40;42.30;;;;;;8363672;28;20033;-46
2024/01/01 09:19:22;;;;;;;0.82;0.82;;;20.50;42.40;;;;;;8362747;28;20029;-48
2024/01/01 09:23:26;;;;;;;1.08;0.98;;;20.50;42.30;;;;;;8363858;28;20029;-49
2024/01/01 09:27:27;;;;;;;0.77;0.77;;;20.40;42.90;;;;;;8363240;28;20037;-47
2024/01/01 09:31:27;;;;;;;0.80;0.80;;;20.20;43.80;;;;;;8363550;28;20069;-47
2024/01/01 09:35:28;;;;;;;0.70;0.70;;;20.20;43.80;;;;;;8363324;28;20109;-48
2024/01/01 09:39:29;;;;;;;0.88;0.70;;;20.30;43.50;;;;;;8362998;28;20430;-47
2024/01/01 09:43:30;;;;;;;0.68;0.68;;;20.30;43.10;;;;;;8363188;28;20040;-48
2024/01/01 09:47:31;;;;;;;0.70;0.70;;;20.40;42.90;;;;;;8363118;28;20021;-48
2024/01/01 09:51:39;;;;;;;0.80;0.80;;;20.40;42.70;;;;;;8362717;28;20029;-49
2024/01/01 09:55:40;;;;;;;0.85;0.70;;;20.40;42.50;;;;;;8362444;28;20479;-49
2024/01/01 09:59:40;;;;;;;1.40;0.82;;;20.40;42.40;;;;;;8361403;28;20495;-49
2024/01/01 10:03:41;;;;;;;0.63;0.60;;;20.50;42.40;;;;;;8362393;28;20110;-47
2024/01/01 10:07:44;;;;;;;0.70;0.70;;;20.40;42.20;;;;;;8360646;28;20438;-48
2024/01/01 10:11:45;;;;;;;0.95;0.60;;;20.40;42.20;;;;;;8362668;28;20024;-49
2024/01/01 10:15:56;;;;;;;0.80;0.80;;;20.40;42.90;;;;;;8360905;28;20036;-48
2024/01/01 10:20:00;;;;;;;1.03;0.80;;;20.20;43.80;;;;;;8361702;28;20056;-49
2024/01/01 10:24:25;;;;;;;0.68;0.65;;;20.10;43.80;;;;;;8361551;28;20037;-48
2024/01/01 10:28:29;;;;;;;0.73;0.65;;;20.30;43.40;;;;;;8361886;28;20238;-48
2024/01/01 10:32:30;;;;;;;0.60;0.60;;;20.30;42.90;;;;;;8361641;28;20029;-47
2024/01/01 10:36:31;;;;;;;;;;;20.40;42.70;;;;;;8361848;28;20115;-47
2024/01/01 10:40:32;;;;;;;0.70;0.70;;;20.40;42.60;;;;;;8361243;28;19909;-48
2024/01/01 10:44:32;;;;;;;0.88;0.88;;;20.40;42.50;;;;;;8359906;28;20037;-48
2024/01/01 10:48:35;;;;;;;0.60;0.60;;;20.40;42.30;;;;;;8361183;28;20033;-49
2024/01/01 10:53:03;;;;;;;0.98;0.80;;;20.40;42.30;;;;;;8360861;28;20036;-47
2024/01/01 10:57:25;;;;;;;1.02;0.85;;;20.40;42.20;;;;;;8360855;28;20487;-48
2024/01/01 11:01:27;;;;;;;0.68;0.63;;;20.40;42.20;;;;;;8360814;28;20102;-47
2024/01/01 11:05:35;;;;;;;0.60;0.50;;;20.30;43.40;;;;;;8360407;28;20063;-47
2024/01/01 11:09:36;;;;;;;1.10;0.70;;;20.10;43.90;;;;;;8360388;28;20053;-50
2024/01/01 11:13:39;;;;;;;0.77;0.60;;;20.20;43.50;;;;;;8360358;28;20111;-47
2024/01/01 11:17:40;;;;;;;1.75;1.17;;;20.20;43.10;;;;;;8360118;28;20041;-49
2024/01/01 11:21:41;;;;;;;0.60;0.50;;;20.30;42.90;;;;;;8360409;28;20154;-49
2024/01/01 11:25:42;;;;;;;0.68;0.68;;;20.30;42.60;;;;;;8360060;28;20032;-47
2024/01/01 11:29:43;;;;;;;0.73;0.70;;;20.30;42.50;;;;;;8359672;28;20045;-50
2024/01/01 11:33:44;;;;;;;0.68;0.57;;;20.30;42.40;;;;;;8359841;28;20410;-47
2024/01/01 11:37:45;;;;;;;0.82;0.68;;;20.30;42.30;;;;;;8359361;28;20035;-47
2024/01/01 11:41:46;;;;;;;0.50;0.50;;;20.30;42.20;;;;;;8360256;28;20536;-46
2024/01/01 11:45:47;;;;;;;0.60;0.60;;;20.30;42.20;;;;;;8359805;28;20513;-45
2024/01/01 11:49:57;;;;;;;0.90;0.60;;;20.30;42.40;;;;;;8359976;28;20041;-45
2024/01/01 11:54:10;;;;;;;0.52;0.50;;;20.20;43.60;;;;;;8359891;28;20386;-47
2024/01/01 11:58:12;;;;;;;0.65;0.43;;;20.00;43.90;;;;;;8359398;28;20406;-45
2024/01/01 12:02:13;;;;;;;0.60;0.60;;;20.10;43.50;;;;;;8359513;28;20467;-45
2024/01/01 12:06:15;;;;;;;0.63;0.50;;;20.20;43.10;;;;;;8359504;28;20574;-46
2024/01/01 12:10:17;;;;;;;0.60;0.60;;;20.20;42.90;;;;;;8358205;28;20457;-46
2024/01/01 12:14:25;;;;;;;0.77;0.70;;;20.20;42.60;;;;;;8359747;28;20348;-46
2024/01/01 12:18:26;;;;;;;0.98;0.70;;;20.30;42.50;;;;;;8359243;28;20061;-45
2024/01/01 12:22:26;;;;;;;0.70;0.50;;;20.30;42.40;;;;;;8359106;28;20075;-44
2024/01/01 12:26:27;;;;;;;0.80;0.70;;;20.30;42.30;;;;;;8359220;28;20072;-46
2024/01/01 12:30:28;;;;;;;1.10;0.70;;;20.30;42.20;;;;;;8359044;28;20120;-45
2024/01/01 12:34:29;;;;;;;0.52;0.52;;;20.30;42.20;;;;;;8358825;28;20471;-46
2024/01/01 12:38:29;;;;;;;0.50;0.50;;;20.20;42.60;;;;;;8359279;28;20040;-46
2024/01/01 12:42:30;;;;;;;0.73;0.70;;;20.10;43.60;;;;;;8358881;28;20025;-45
2024/01/01 12:46:31;;;;;;;0.75;0.57;;;20.00;43.80;;;;;;8360592;28;20650;-45
2024/01/01 12:50:32;;;;;;;0.47;0.47;;;20.10;43.40;;;;;;8365163;28;20040;-47
2024/01/01 12:54:32;;;;;;;0.85;0.60;;;20.20;43.00;;;;;;8364528;28;20061;-48
2024/01/01 12:58:33;;;;;;;1.05;0.80;;;20.20;42.70;;;;;;8364698;28;20112;-49
2024/01/01 13:02:35;;;;;;;0.60;0.60;;;20.20;42.60;;;;;;8364568;28;20026;-48
2024/01/01 13:06:36;;;;;;;0.73;0.70;;;20.20;42.40;;;;;;8364313;28;20518;-47
2024/01/01 13:10:36;;;;;;;0.70;0.65;;;20.20;42.30;;;;;;8364277;28;20467;-47
2024/01/01 13:14:37;;;;;;;1.30;0.73;;;20.20;42.20;;;;;;8364026;28;20029;-48
2024/01/01 13:18:38;;;;;;;0.60;0.50;;;20.30;42.20;;;;;;8364293;28;20029;-47
2024/01/01 13:22:38;;;;;;;0.52;0.52;;;20.20;42.10;;;;;;8363698;28;20029;-48
2024/01/01 13:26:39;;;;;;;0.55;0.55;;;20.20;42.70;;;;;;8363880;28;20062;-47
2024/01/01 13:30:43;;;;;;;0.30;0.30;;;20.10;43.70;;;;;;8364017;28;20116;-48
2024/01/01 13:34:43;;;;;;;0.85;0.85;;;20.00;44.30;;;;;;8362256;28;20037;-47
2024/01/01 13:38:44;;;;;;;0.50;0.50;;;20.00;43.30;;;;;;8363347;28;20475;-47
2024/01/01 13:42:48;;;;;;;0.70;0.50;;;20.10;43.00;;;;;;8363425;28;20021;-47
2024/01/01 13:46:49;;;;;;;0.52;0.47;;;20.20;42.70;;;;;;8361982;28;20114;-47
2024/01/01 13:50:50;;;;;;;0.50;0.50;;;20.20;42.50;;;;;;8362989;28;20048;-47
2024/01/01 13:54:50;;;;;;;0.82;0.50;;;20.20;42.40;;;;;;8362856;28;20104;-47
2024/01/01 13:58:51;;;;;;;0.82;0.50;;;20.20;42.30;;;;;;8361914;28;20395;-48
2024/01/01 14:02:52;;;;;;;1.50;0.50;;;20.20;42.20;;;;;;8362551;28;20083;-45
2024/01/01 14:06:53;;;;;;;0.60;0.60;;;20.20;42.10;;;;;;8362545;28;20057;-46
2024/01/01 14:10:54;;;;;;;0.50;0.50;;;20.20;42.00;;;;;;8362207;28;20037;-46
2024/01/01 14:14:57;;;;;;;;;;;20.20;42.50;;;;;;8362541;28;20516;-45
2024/01/01 14:18:58;;;;;;;0.50;0.50;;;20.10;43.50;;;;;;8362201;28;19975;-45
2024/01/01 14:22:59;;;;;;;0.40;0.40;;;20.00;43.70;;;;;;8361853;28;20044;-45
2024/01/01 14:27:03;;;;;;;0.65;0.50;;;20.10;43.30;;;;;;8362224;28;20327;-46
2024/01/01 14:31:04;;;;;;;0.50;0.50;;;20.10;42.90;;;;;;8361589;28;20032;-45
2024/01/01 14:35:05;;;;;;;0.40;0.40;;;20.20;42.60;;;;;;8360125;28;20021;-45
2024/01/01 14:39:08;;;;;;;0.50;0.50;;;20.20;42.30;;;;;;8361690;28;20090;-45
2024/01/01 14:43:09;;;;;;;0.80;0.50;;;20.30;42.30;;;;;;8360979;28;20055;-45
2024/01/01 14:47:10;;;;;;;0.65;0.40;;;20.30;42.20;;;;;;8361142;28;20040;-45
2024/01/01 14:51:12;;;;;;;0.50;0.50;;;20.30;42.10;;;;;;8361157;28;20041;-45
2024/01/01 14:55:13;;;;;;;0.40;0.40;;;20.30;41.90;;;;;;8360706;28;20552;-45
2024/01/01 14:59:14;;;;;;;0.45;0.40;;;20.30;41.90;;;;;;8360746;28;20379;-44
2024/01/01 15:03:15;;;;;;;0.70;0.60;;;20.30;42.40;;;;;;8360994;28;20045;-45
2024/01/01 15:07:15;;;;;;;0.70;0.50;;;20.10;43.40;;;;;;8360339;28;20099;-44
2024/01/01 15:11:16;;;;;;;0.50;0.50;;;20.00;43.50;;;;;;8360320;28;20041;-48
2024/01/01 15:15:17;;;;;;;0.40;0.40;;;20.10;43.10;;;;;;8360346;28;20043;-49
2024/01/01 15:19:18;;;;;;;0.52;0.52;;;20.10;42.70;;;;;;8360085;28;20037;-47
2024/01/01 15:23:19;;;;;;;0.40;0.40;;;20.20;42.50;;;;;;8360290;28;20560;-47
2024/01/01 15:27:19;;;;;;;0.40;0.40;;;20.30;42.30;;;;;;8358656;28;20465;-49
2024/01/01 15:31:20;;;;;;;1.58;0.50;;;20.30;42.20;;;;;;8359857;28;20025;-48
2024/01/01 15:35:21;;;;;;;0.60;0.60;;;20.30;42.10;;;;;;8360057;28;20119;-46
2024/01/01 15:39:22;;;;;;;0.50;0.50;;;20.30;42.00;;;;;;8359540;28;20037;-48
2024/01/01 15:43:23;;;;;;;0.40;0.40;;;20.30;41.90;;;;;;8358331;28;20170;-47
2024/01/01 15:47:23;;;;;;;0.50;0.50;;;20.30;41.80;;;;;;8359836;28;20244;-49
2024/01/01 15:51:24;;;;;;;0.47;0.47;;;20.20;42.40;;;;;;8359398;28;20045;-47
2024/01/01 15:55:25;;;;;;;0.75;0.50;;;20.10;43.40;;;;;;8358135;28;20438;-49
2024/01/01 15:59:28;;;;;;;0.30;0.30;;;20.00;44.00;;;;;;8358152;28;20037;-51
2024/01/01 16:03:29;;;;;;;0.50;0.50;;;20.10;43.00;;;;;;8359374;28;20360;-46
2024/01/01 16:07:29;;;;;;;0.55;0.40;;;20.20;42.60;;;;;;8359052;28;20089;-48
2024/01/01 16:11:30;;;;;;;0.43;0.30;;;20.20;42.30;;;;;;8359303;28;20037;-48
2024/01/01 16:15:31;;;;;;;0.35;0.35;;;20.20;42.20;;;;;;8359068;28;20044;-49
2024/01/01 16:19:32;;;;;;;0.30;0.30;;;20.30;42.10;;;;;;8359200;28;20421;-48
2024/01/01 16:23:33;;;;;;;0.40;0.40;;;20.30;41.90;;;;;;8364480;28;20083;-46
2024/01/01 16:27:34;;;;;;;0.43;0.43;;;20.30;41.80;;;;;;8365279;28;20090;-45
2024/01/01 16:31:35;;;;;;;0.40;0.40;;;20.30;41.80;;;;;;8365666;28;20567;-48
2024/01/01 16:35:36;;;;;;;0.60;0.52;;;20.30;41.70;;;;;;8363926;28;20037;-45
2024/01/01 16:39:37;;;;;;;0.40;0.40;;;20.20;42.40;;;;;;8363917;28;20025;-45
2024/01/01 16:43:38;;;;;;;0.30;0.30;;;20.10;43.40;;;;;;8365096;28;20029;-46
2024/01/01 16:47:38;;;;;;;0.50;0.40;;;20.00;43.30;;;;;;8365084;28;20117;-47
2024/01/01 16:51:40;;;;;;;0.50;0.50;;;20.10;42.80;;;;;;8364903;28;20150;-46
2024/01/01 16:55:42;;;;;;;0.55;0.50;;;20.20;42.50;;;;;;8364603;28;20036;-45
2024/01/01 16:59:43;;;;;;;0.70;0.40;;;20.20;42.30;;;;;;8364555;28;20028;-46
2024/01/01 17:03:44;;;;;;;0.30;0.30;;;20.20;42.10;;;;;;8364372;28;20037;-45
2024/01/01 17:07:44;;;;;;;0.43;0.43;;;20.30;42.00;;;;;;8364395;28;20445;-45
2024/01/01 17:11:45;;;;;;;0.30;0.30;;;20.30;41.90;;;;;;8362830;28;20047;-45
2024/01/01 17:15:46;;;;;;;0.35;0.35;;;20.30;41.80;;;;;;8364353;28;20037;-45
2024/01/01 17:19:49;;;;;;;0.40;0.38;;;20.30;41.70;;;;;;8364172;28;20037;-45
2024/01/01 17:23:50;;;;;;;0.50;0.40;;;20.30;41.70;;;;;;8363847;28;20486;-45
2024/01/01 17:27:51;;;;;;;0.30;0.30;;;20.20;42.50;;;;;;8363809;28;20033;-46
2024/01/01 17:31:52;;;;;;;0.43;0.43;;;20.10;43.40;;;;;;8363662;28;20437;-47
2024/01/01 17:35:52;;;;;;;0.40;0.40;;;20.00;43.20;;;;;;8362739;28;20021;-46
2024/01/01 17:39:53;;;;;;;0.50;0.50;;;20.10;42.80;;;;;;8363008;28;20044;-48
2024/01/01 17:43:55;;;;;;;0.30;0.30;;;20.20;42.50;;;;;;8362020;28;20087;-47
2024/01/01 17:47:55;;;;;;;0.40;0.32;;;20.20;42.20;;;;;;8345617;28;20044;-48
2024/01/01 17:51:56;;;;;;;0.30;0.30;;;20.20;42.10;;;;;;8363053;28;20060;-47
2024/01/01 17:55:57;;;;;;;0.40;0.40;;;20.30;42.00;;;;;;8362576;28;20112;-47
2024/01/01 17:59:58;;;;;;;0.52;0.47;;;20.30;41.90;;;;;;8362685;28;20021;-47
2024/01/01 18:03:59;;;;;;;0.40;0.40;;;20.30;41.80;;;;;;8362524;28;20482;-47
2024/01/01 18:08:00;;;;;;;0.40;0.40;;;20.30;41.60;;;;;;8362608;28;20513;-49
2024/01/01 18:12:01;;;;;;;0.55;0.50;;;20.30;41.60;;;;;;8361087;28;20031;-47
2024/01/01 18:16:04;;;;;;;0.30;0.30;;;20.20;42.50;;;;;;8362100;28;20045;-47
2024/01/01 18:20:05;;;;;;;0.75;0.40;;;20.00;43.40;;;;;;8362202;28;20128;-48
2024/01/01 18:24:06;;;;;;;;;;;20.00;43.20;;;;;;8362410;28;20493;-48
2024/01/01 18:28:06;;;;;;;0.57;0.50;;;20.10;42.80;;;;;;8361779;28;20596;-46
2024/01/01 18:32:07;;;;;;;0.30;0.30;;;20.10;42.50;;;;;;8361748;28;20112;-47
2024/01/01 18:36:08;;;;;;;0.40;0.40;;;20.20;42.30;;;;;;8361629;28;20350;-47
2024/01/01 18:40:09;;;;;;;0.30;0.30;;;20.20;42.00;;;;;;8361474;28;20415;-46
2024/01/01 18:44:10;;;;;;;0.45;0.43;;;20.20;41.90;;;;;;8360935;28;20029;-46
2024/01/01 18:48:11;;;;;;;0.95;0.30;;;20.30;41.80;;;;;;8361189;28;20041;-47
2024/01/01 18:52:11;;;;;;;0.40;0.40;;;20.30;41.70;;;;;;8360110;28;20368;-48
2024/01/01 18:56:12;;;;;;;0.35;0.35;;;20.30;41.60;;;;;;8360646;28;20041;-50
2024/01/01 19:00:13;;;;;;;1.00;0.43;;;20.30;41.50;;;;;;8359530;28;20033;-48
2024/01/01 19:04:14;;;;;;;;;;;20.20;42.50;;;;;;8361365;28;20036;-48
2024/01/01 19:08:15;;;;;;;0.80;0.40;;;20.00;43.40;;;;;;8360390;28;19921;-48
2024/01/01 19:12:16;;;;;;;0.30;0.30;;;20.00;43.10;;;;;;8360559;28;20279;-47
2024/01/01 19:16:19;;;;;;;0.50;0.50;;;20.10;42.70;;;;;;8360771;28;20474;-48
2024/01/01 19:20:20;;;;;;;0.40;0.40;;;20.10;42.30;;;;;;8360121;28;20021;-47
2024/01/01 19:24:21;;;;;;;0.32;0.32;;;20.20;42.10;;;;;;8360353;28;20064;-46
2024/01/01 19:28:21;;;;;;;0.35;0.35;;;20.20;42.00;;;;;;8360140;28;20041;-47
2024/01/01 19:32:22;;;;;;;0.73;0.50;;;20.20;41.80;;;;;;8360161;28;20056;-49
2024/01/01 19:36:23;;;;;;;0.40;0.40;;;20.30;41.70;;;;;;8360079;28;20475;-48
2024/01/01 19:40:24;;;;;;;0.40;0.40;;;20.30;41.70;;;;;;8359836;28;20033;-49
2024/01/01 19:44:24;;;;;;;1.17;1.00;;;20.30;41.60;;;;;;8353753;28;20032;-47
2024/01/01 19:48:26;;;;;;;4.35;1.67;;;20.00;41.20;;;;;;8354330;28;20025;-47
2024/01/01 19:52:28;;;;;;;2.55;1.55;;;19.70;42.40;;;;;;8354362;28;20559;-45
2024/01/01 19:56:28;;;;;;;4.28;1.58;;;19.70;43.40;;;;;;8355649;28;20525;-46
2024/01/01 20:00:29;;;;;;;2.10;1.20;;;19.90;43.10;;;;;;8360588;28;20405;-48
2024/01/01 20:04:30;;;;;;;2.20;1.27;;;20.00;42.80;;;;;;8360456;28;20021;-44
2024/01/01 20:08:31;;;;;;;;;;;20.10;42.40;;;;;;8360872;28;20776;-45
2024/01/01 20:12:33;;;;;;;3.63;1.67;;;20.20;42.40;;;;;;8360178;28;20285;-44
2024/01/01 20:16:34;;;;;;;2.13;1.40;;;20.20;42.20;;;;;;8359920;28;20513;-42
2024/01/01 20:20:35;;;;;;;3.17;1.40;;;20.30;42.30;;;;;;8359991;28;20570;-44
2024/01/01 20:24:36;;;;;;;2.53;1.15;;;20.30;42.10;;;;;;8359658;28;20517;-45
2024/01/01 20:28:36;;;;;;;1.23;1.02;;;20.40;42.00;;;;;;8359809;28;20040;-46
2024/01/01 20:32:37;;;;;;;1.83;1.20;;;20.40;42.10;;;;;;8359397;28;20078;-44
2024/01/01 20:36:38;;;;;;;1.27;1.10;;;20.40;42.00;;;;;;8359485;28;20837;-45
2024/01/01 20:40:38;;;;;;;2.55;1.35;;;20.30;42.80;;;;;;8359122;28;20037;-44
2024/01/01 20:44:39;;;;;;;2.97;1.40;;;20.20;43.40;;;;;;8357957;28;20538;-48
2024/01/01 20:48:41;;;;;;;3.05;1.00;;;20.20;43.10;;;;;;8361473;28;20041;-47
2024/01/01 20:52:44;;;;;;;1.25;1.10;;;20.30;42.80;;;;;;8360935;28;20029;-46
2024/01/01 20:56:45;;;;;;;4.97;1.02;;;20.50;42.20;;;;;;8360895;28;20079;-46